createdAt,value
2023-05-19T00:00:14.474Z,15.10
2023-05-19T00:01:14.306Z,12.40
2023-05-19T00:02:14.571Z,13.30
2023-05-19T00:03:14.561Z,14.30
2023-05-19T00:04:14.413Z,12.70
2023-05-19T00:05:14.616Z,13.40
2023-05-19T00:06:14.485Z,12.40
2023-05-19T00:07:14.313Z,12.20
2023-05-19T00:08:14.639Z,13.60
2023-05-19T00:09:14.243Z,14.60
2023-05-19T00:10:14.256Z,12.30
2023-05-19T00:11:14.262Z,14.30
2023-05-19T00:12:14.805Z,13.10
2023-05-19T00:13:14.233Z,12.50
2023-05-19T00:14:14.476Z,13.80
2023-05-19T00:15:16.156Z,13.90
2023-05-19T00:16:14.540Z,12.80
2023-05-19T00:17:14.286Z,12.80
2023-05-19T00:18:14.445Z,14.90
2023-05-19T00:19:14.463Z,12.10
2023-05-19T00:20:14.193Z,13.10
2023-05-19T00:21:14.216Z,11.50
2023-05-19T00:22:14.232Z,15.40
2023-05-19T00:23:14.248Z,16.30
2023-05-19T00:24:14.231Z,11.60
2023-05-19T00:25:14.238Z,11.50
2023-05-19T00:26:14.249Z,14.40
2023-05-19T00:27:14.376Z,12.70
2023-05-19T00:28:14.161Z,15.50
2023-05-19T00:29:14.114Z,15.50
2023-05-19T00:30:14.490Z,15.00
2023-05-19T00:31:14.097Z,16.00
2023-05-19T00:32:14.179Z,13.90
2023-05-19T00:33:14.093Z,12.60
2023-05-19T00:34:14.093Z,12.90
2023-05-19T00:35:14.100Z,15.00
2023-05-19T00:36:14.077Z,13.70
2023-05-19T00:37:14.053Z,13.40
2023-05-19T00:38:16.046Z,14.60
2023-05-19T00:39:14.109Z,13.80
2023-05-19T00:40:14.041Z,15.90
2023-05-19T00:41:14.041Z,12.80
2023-05-19T00:42:14.026Z,13.40
2023-05-19T00:43:14.034Z,14.40
2023-05-19T00:44:14.041Z,14.20
2023-05-19T00:45:14.086Z,13.10
2023-05-19T00:46:14.322Z,13.00
2023-05-19T00:47:14.019Z,10.80
2023-05-19T00:48:13.999Z,10.30
2023-05-19T00:49:14.008Z,14.70
2023-05-19T00:50:13.991Z,12.70
2023-05-19T00:51:14.016Z,12.30
2023-05-19T00:52:13.963Z,13.10
2023-05-19T00:53:13.965Z,13.30
2023-05-19T00:54:14.140Z,13.50
2023-05-19T00:55:13.938Z,13.10
2023-05-19T00:56:15.897Z,12.30
2023-05-19T00:57:13.923Z,11.70
2023-05-19T00:58:13.945Z,14.90
2023-05-19T00:59:14.272Z,11.70
2023-05-19T01:00:13.919Z,14.60
2023-05-19T01:01:13.943Z,13.20
2023-05-19T01:02:13.909Z,16.70
2023-05-19T01:03:13.978Z,14.40
2023-05-19T01:04:13.884Z,10.80
2023-05-19T01:05:15.816Z,12.60
2023-05-19T01:06:13.860Z,12.90
2023-05-19T01:07:13.892Z,14.20
2023-05-19T01:08:13.863Z,11.70
2023-05-19T01:09:13.860Z,13.10
2023-05-19T01:10:13.844Z,12.10
2023-05-19T01:11:13.823Z,12.40
2023-05-19T01:12:14.291Z,13.00
2023-05-19T01:13:13.827Z,10.10
2023-05-19T01:14:13.815Z,14.00
2023-05-19T01:15:14.289Z,14.40
2023-05-19T01:16:13.950Z,12.80
2023-05-19T01:17:13.817Z,16.20
2023-05-19T01:18:13.814Z,11.90
2023-05-19T01:19:13.970Z,13.10
2023-05-19T01:20:13.819Z,12.90
2023-05-19T01:21:13.844Z,15.10
2023-05-19T01:22:13.772Z,12.40
2023-05-19T01:23:13.770Z,11.40
2023-05-19T01:24:13.754Z,12.80
2023-05-19T01:25:13.968Z,15.30
2023-05-19T01:26:13.769Z,15.30
2023-05-19T01:27:13.713Z,13.80
2023-05-19T01:28:15.690Z,10.60
2023-05-19T01:29:13.705Z,12.90
2023-05-19T01:30:13.728Z,12.60
2023-05-19T01:31:15.666Z,9.90
2023-05-19T01:32:13.727Z,15.50
2023-05-19T01:33:13.690Z,12.70
2023-05-19T01:34:15.651Z,16.40
2023-05-19T01:35:13.685Z,10.00
2023-05-19T01:36:13.668Z,16.20
2023-05-19T01:37:13.665Z,13.30
2023-05-19T01:38:13.663Z,14.40
2023-05-19T01:39:13.649Z,16.30
2023-05-19T01:40:13.692Z,15.00
2023-05-19T01:41:13.620Z,11.10
2023-05-19T01:42:13.632Z,12.70
2023-05-19T01:43:13.613Z,15.40
2023-05-19T01:44:13.688Z,15.40
2023-05-19T01:45:13.794Z,14.30
2023-05-19T01:46:13.645Z,15.60
2023-05-19T01:47:13.800Z,11.90
2023-05-19T01:48:13.743Z,13.60
2023-05-19T01:49:13.615Z,13.00
2023-05-19T01:50:13.584Z,13.40
2023-05-19T01:51:13.559Z,10.60
2023-05-19T01:52:13.585Z,12.00
2023-05-19T01:53:13.554Z,12.00
2023-05-19T01:54:13.557Z,13.30
2023-05-19T01:55:13.532Z,12.60
2023-05-19T01:56:13.540Z,12.10
2023-05-19T01:57:13.569Z,13.80
2023-05-19T01:58:13.679Z,13.10
2023-05-19T01:59:15.508Z,13.30
2023-05-19T02:00:14.103Z,13.20
2023-05-19T02:01:13.629Z,13.40
2023-05-19T02:02:13.520Z,12.30
2023-05-19T02:03:13.613Z,13.50
2023-05-19T02:04:13.559Z,14.30
2023-05-19T02:05:13.496Z,16.30
2023-05-19T02:06:13.738Z,14.90
2023-05-19T02:07:13.526Z,15.00
2023-05-19T02:08:15.431Z,13.40
2023-05-19T02:09:13.857Z,12.30
2023-05-19T02:10:13.454Z,13.20
2023-05-19T02:11:13.461Z,12.70
2023-05-19T02:12:13.489Z,12.10
2023-05-19T02:13:13.490Z,13.60
2023-05-19T02:14:13.488Z,12.40
2023-05-19T02:15:13.494Z,13.40
2023-05-19T02:16:13.583Z,12.00
2023-05-19T02:17:13.612Z,12.90
2023-05-19T02:18:13.620Z,13.60
2023-05-19T02:19:13.450Z,21.10
2023-05-19T02:20:13.525Z,13.30
2023-05-19T02:21:13.440Z,12.20
2023-05-19T02:22:13.443Z,14.60
2023-05-19T02:23:13.432Z,16.40
2023-05-19T02:24:13.357Z,17.10
2023-05-19T02:25:13.667Z,13.00
2023-05-19T02:26:13.367Z,15.80
2023-05-19T02:27:13.386Z,13.50
2023-05-19T02:28:13.696Z,16.50
2023-05-19T02:29:13.578Z,14.50
2023-05-19T02:30:14.771Z,13.40
2023-05-19T02:31:13.610Z,14.10
2023-05-19T02:32:13.416Z,12.30
2023-05-19T02:33:13.532Z,13.20
2023-05-19T02:34:13.280Z,13.40
2023-05-19T02:35:13.526Z,13.20
2023-05-19T02:36:13.296Z,11.80
2023-05-19T02:37:13.449Z,9.00
2023-05-19T02:38:13.753Z,12.70
2023-05-19T02:39:13.449Z,12.20
2023-05-19T02:40:13.259Z,13.50
2023-05-19T02:41:13.381Z,13.30
2023-05-19T02:42:13.270Z,11.10
2023-05-19T02:43:13.228Z,13.50
2023-05-19T02:44:13.683Z,12.40
2023-05-19T02:45:13.297Z,12.60
2023-05-19T02:46:13.213Z,15.60
2023-05-19T02:47:13.607Z,10.90
2023-05-19T02:48:13.976Z,12.70
2023-05-19T02:49:13.522Z,12.20
2023-05-19T02:50:13.238Z,15.00
2023-05-19T02:51:13.179Z,11.40
2023-05-19T02:52:13.157Z,11.80
2023-05-19T02:53:13.166Z,11.60
2023-05-19T02:54:13.460Z,12.20
2023-05-19T02:55:13.264Z,12.50
2023-05-19T02:56:13.217Z,14.20
2023-05-19T02:57:15.087Z,13.10
2023-05-19T02:58:13.281Z,12.80
2023-05-19T02:59:13.311Z,14.60
2023-05-19T03:00:13.119Z,14.90
2023-05-19T03:01:13.115Z,12.90
2023-05-19T03:02:13.166Z,14.70
2023-05-19T03:03:13.616Z,12.30
2023-05-19T03:04:15.065Z,13.80
2023-05-19T03:05:13.120Z,14.30
2023-05-19T03:06:13.059Z,14.10
2023-05-19T03:07:13.058Z,11.60
2023-05-19T03:08:13.344Z,13.40
2023-05-19T03:09:14.515Z,12.30
2023-05-19T03:10:13.670Z,14.80
2023-05-19T03:11:13.271Z,11.20
2023-05-19T03:12:13.273Z,12.30
2023-05-19T03:13:13.584Z,13.00
2023-05-19T03:14:13.180Z,12.10
2023-05-19T03:15:13.190Z,17.30
2023-05-19T03:16:13.129Z,14.50
2023-05-19T03:17:13.188Z,12.50
2023-05-19T03:18:13.058Z,14.20
2023-05-19T03:19:13.121Z,11.50
2023-05-19T03:20:13.064Z,13.60
2023-05-19T03:21:13.029Z,16.40
2023-05-19T03:22:13.146Z,12.80
2023-05-19T03:23:13.051Z,13.40
2023-05-19T03:24:12.950Z,11.10
2023-05-19T03:25:12.970Z,12.30
2023-05-19T03:26:12.981Z,13.20
2023-05-19T03:27:12.980Z,13.90
2023-05-19T03:28:12.983Z,12.20
2023-05-19T03:29:13.100Z,11.40
2023-05-19T03:30:13.107Z,13.20
2023-05-19T03:31:12.919Z,12.40
2023-05-19T03:32:13.312Z,12.50
2023-05-19T03:33:13.176Z,11.50
2023-05-19T03:34:12.923Z,14.40
2023-05-19T03:35:12.882Z,12.50
2023-05-19T03:36:12.933Z,11.80
2023-05-19T03:37:12.958Z,14.00
2023-05-19T03:38:13.253Z,14.10
2023-05-19T03:39:12.854Z,11.50
2023-05-19T03:40:12.873Z,11.90
2023-05-19T03:41:13.168Z,12.70
2023-05-19T03:42:13.399Z,15.10
2023-05-19T03:43:13.088Z,11.60
2023-05-19T03:44:12.816Z,15.30
2023-05-19T03:45:13.406Z,12.10
2023-05-19T03:46:13.080Z,12.80
2023-05-19T03:47:13.011Z,12.20
2023-05-19T03:48:13.144Z,15.10
2023-05-19T03:49:12.925Z,12.60
2023-05-19T03:50:12.793Z,12.60
2023-05-19T03:51:12.753Z,12.80
2023-05-19T03:52:12.772Z,13.60
2023-05-19T03:53:12.755Z,11.20
2023-05-19T03:54:12.769Z,12.10
2023-05-19T03:55:12.772Z,11.10
2023-05-19T03:56:12.779Z,8.60
2023-05-19T03:57:12.782Z,13.00
2023-05-19T03:58:12.796Z,12.70
2023-05-19T03:59:12.797Z,13.70
2023-05-19T04:00:12.723Z,13.00
2023-05-19T04:01:12.710Z,12.60
2023-05-19T04:02:12.760Z,14.70
2023-05-19T04:03:12.887Z,11.50
2023-05-19T04:04:13.093Z,11.40
2023-05-19T04:05:12.742Z,10.90
2023-05-19T04:06:12.681Z,14.00
2023-05-19T04:07:12.848Z,16.30
2023-05-19T04:08:12.746Z,13.50
2023-05-19T04:09:12.758Z,13.40
2023-05-19T04:10:12.911Z,13.80
2023-05-19T04:11:12.675Z,13.70
2023-05-19T04:12:12.675Z,14.10
2023-05-19T04:13:12.685Z,11.30
2023-05-19T04:14:12.690Z,11.50
2023-05-19T04:15:12.618Z,13.40
2023-05-19T04:16:12.982Z,11.60
2023-05-19T04:17:12.617Z,11.90
2023-05-19T04:18:12.865Z,11.80
2023-05-19T04:19:12.856Z,13.00
2023-05-19T04:20:12.628Z,13.50
2023-05-19T04:21:12.648Z,11.50
2023-05-19T04:22:12.562Z,12.00
2023-05-19T04:23:12.756Z,11.30
2023-05-19T04:24:12.660Z,12.50
2023-05-19T04:25:12.662Z,10.90
2023-05-19T04:26:12.884Z,14.80
2023-05-19T04:27:12.573Z,13.70
2023-05-19T04:28:12.586Z,11.10
2023-05-19T04:29:12.898Z,12.00
2023-05-19T04:30:12.514Z,10.70
2023-05-19T04:31:12.524Z,11.30
2023-05-19T04:32:12.816Z,12.00
2023-05-19T04:33:13.192Z,11.80
2023-05-19T04:34:12.723Z,13.60
2023-05-19T04:35:12.632Z,11.70
2023-05-19T04:36:12.552Z,11.80
2023-05-19T04:37:12.552Z,9.40
2023-05-19T04:38:14.411Z,11.20
2023-05-19T04:39:12.567Z,10.30
2023-05-19T04:40:12.574Z,12.80
2023-05-19T04:41:12.456Z,13.10
2023-05-19T04:42:12.704Z,10.60
2023-05-19T04:43:12.484Z,12.10
2023-05-19T04:44:12.488Z,9.80
2023-05-19T04:45:12.824Z,12.00
2023-05-19T04:46:13.708Z,13.60
2023-05-19T04:47:12.432Z,9.60
2023-05-19T04:48:12.434Z,10.30
2023-05-19T04:49:12.612Z,9.30
2023-05-19T04:50:12.406Z,11.50
2023-05-19T04:51:12.646Z,11.70
2023-05-19T04:52:12.358Z,10.20
2023-05-19T04:53:12.360Z,10.90
2023-05-19T04:54:12.359Z,12.10
2023-05-19T04:55:12.336Z,9.70
2023-05-19T04:56:12.347Z,10.70
2023-05-19T04:58:40.590Z,8.20
2023-05-19T04:59:38.381Z,10.00
2023-05-19T05:00:38.289Z,7.60
2023-05-19T05:01:38.477Z,10.80
2023-05-19T05:02:38.409Z,8.90
2023-05-19T05:03:38.399Z,9.20
2023-05-19T05:04:38.500Z,10.70
2023-05-19T05:05:38.508Z,10.10
2023-05-19T05:06:38.244Z,11.50
2023-05-19T05:07:38.534Z,7.90
2023-05-19T05:08:38.529Z,9.90
2023-05-19T05:09:38.302Z,10.90
2023-05-19T05:10:38.192Z,11.80
2023-05-19T05:11:38.325Z,11.80
2023-05-19T05:12:38.325Z,10.20
2023-05-19T05:13:38.319Z,12.30
2023-05-19T05:14:38.581Z,10.90
2023-05-19T05:15:38.296Z,9.00
2023-05-19T05:16:38.227Z,10.80
2023-05-19T05:17:38.277Z,11.60
2023-05-19T05:18:38.253Z,8.80
2023-05-19T05:19:38.165Z,9.00
2023-05-19T05:20:38.330Z,7.90
2023-05-19T05:21:38.131Z,7.20
2023-05-19T05:22:38.153Z,8.90
2023-05-19T05:23:38.263Z,13.00
2023-05-19T05:24:38.136Z,7.00
2023-05-19T05:25:38.159Z,11.50
2023-05-19T05:26:38.096Z,12.00
2023-05-19T05:27:38.249Z,11.00
2023-05-19T05:28:38.300Z,12.30
2023-05-19T05:29:38.082Z,12.00
2023-05-19T05:30:38.237Z,12.90
2023-05-19T05:31:38.218Z,8.70
2023-05-19T05:32:38.132Z,7.60
2023-05-19T05:33:38.483Z,8.10
2023-05-19T05:34:38.157Z,7.60
2023-05-19T05:35:38.036Z,7.20
2023-05-19T05:36:38.449Z,8.80
2023-05-19T05:37:38.093Z,8.80
2023-05-19T05:38:38.017Z,7.60
2023-05-19T05:39:38.027Z,10.40
2023-05-19T05:40:38.035Z,11.20
2023-05-19T05:41:38.026Z,11.30
2023-05-19T05:42:38.029Z,11.20
2023-05-19T05:43:37.979Z,11.50
2023-05-19T05:44:38.220Z,8.40
2023-05-19T05:45:38.029Z,9.40
2023-05-19T05:46:37.965Z,13.70
2023-05-19T05:47:37.974Z,9.40
2023-05-19T05:48:37.933Z,8.70
2023-05-19T05:49:37.917Z,7.60
2023-05-19T05:50:38.054Z,12.50
2023-05-19T05:51:37.954Z,13.40
2023-05-19T05:52:37.922Z,13.00
2023-05-19T05:53:37.902Z,10.20
2023-05-19T05:54:37.905Z,10.10
2023-05-19T05:55:37.906Z,10.50
2023-05-19T05:56:37.916Z,10.10
2023-05-19T05:57:37.893Z,10.70
2023-05-19T05:58:37.896Z,11.20
2023-05-19T05:59:37.901Z,11.50
2023-05-19T06:00:37.876Z,9.40
2023-05-19T06:01:37.887Z,11.00
2023-05-19T06:02:38.000Z,7.70
2023-05-19T06:03:37.931Z,9.60
2023-05-19T06:04:37.875Z,12.00
2023-05-19T06:05:37.910Z,8.90
2023-05-19T06:06:37.828Z,11.40
2023-05-19T06:07:37.816Z,13.30
2023-05-19T06:08:38.263Z,10.90
2023-05-19T06:09:37.908Z,10.60
2023-05-19T06:10:37.910Z,13.40
2023-05-19T06:11:38.221Z,9.60
2023-05-19T06:12:39.750Z,11.10
2023-05-19T06:13:37.772Z,10.50
2023-05-19T06:14:38.134Z,13.20
2023-05-19T06:15:37.810Z,16.20
2023-05-19T06:16:37.882Z,10.90
2023-05-19T06:17:37.788Z,9.20
2023-05-19T06:18:37.870Z,9.20
2023-05-19T06:19:37.742Z,14.20
2023-05-19T06:20:37.754Z,7.80
2023-05-19T06:21:37.729Z,12.00
2023-05-19T06:22:37.719Z,9.80
2023-05-19T06:23:37.745Z,9.70
2023-05-19T06:24:39.449Z,8.60
2023-05-19T06:25:37.704Z,8.80
2023-05-19T06:26:37.702Z,11.20
2023-05-19T06:27:37.687Z,9.50
2023-05-19T06:28:37.704Z,8.50
2023-05-19T06:29:37.680Z,7.40
2023-05-19T06:30:39.621Z,8.50
2023-05-19T06:31:37.688Z,9.50
2023-05-19T06:32:37.734Z,11.70
2023-05-19T06:33:37.655Z,8.60
2023-05-19T06:34:37.650Z,7.20
2023-05-19T06:35:37.643Z,9.70
2023-05-19T06:36:37.624Z,11.40
2023-05-19T06:37:37.698Z,11.10
2023-05-19T06:38:37.738Z,8.80
2023-05-19T06:39:37.681Z,10.40
2023-05-19T06:40:37.718Z,11.40
2023-05-19T06:41:37.753Z,10.00
2023-05-19T06:42:37.590Z,11.70
2023-05-19T06:43:37.575Z,11.50
2023-05-19T06:44:37.614Z,10.80
2023-05-19T06:45:37.567Z,8.20
2023-05-19T06:46:37.619Z,10.10
2023-05-19T06:47:37.630Z,13.00
2023-05-19T06:48:37.535Z,11.30
2023-05-19T06:49:37.747Z,9.20
2023-05-19T06:50:37.537Z,7.90
2023-05-19T06:51:37.536Z,7.60
2023-05-19T06:52:37.512Z,7.50
2023-05-19T06:53:39.467Z,10.40
2023-05-19T06:54:37.499Z,9.00
2023-05-19T06:55:47.210Z,10.70
2023-05-19T06:56:37.509Z,8.30
2023-05-19T06:57:37.658Z,8.60
2023-05-19T06:58:37.478Z,7.70
2023-05-19T06:59:37.482Z,10.70
2023-05-19T07:00:37.544Z,9.20
2023-05-19T07:01:37.457Z,8.10
2023-05-19T07:02:37.519Z,9.20
2023-05-19T07:03:37.494Z,8.50
2023-05-19T07:04:37.442Z,10.30
2023-05-19T07:05:37.568Z,10.40
2023-05-19T07:06:37.422Z,9.00
2023-05-19T07:07:37.454Z,8.60
2023-05-19T07:08:37.489Z,11.00
2023-05-19T07:09:37.873Z,9.60
2023-05-19T07:10:37.437Z,8.00
2023-05-19T07:11:37.430Z,8.80
2023-05-19T07:12:37.976Z,13.70
2023-05-19T07:13:37.398Z,10.50
2023-05-19T07:14:37.385Z,10.80
2023-05-19T07:15:37.554Z,8.30
2023-05-19T07:16:37.552Z,10.60
2023-05-19T07:17:37.363Z,7.80
2023-05-19T07:18:37.693Z,10.20
2023-05-19T07:19:37.429Z,9.90
2023-05-19T07:20:37.422Z,10.30
2023-05-19T07:21:37.764Z,10.00
2023-05-19T07:22:37.348Z,8.30
2023-05-19T07:23:37.342Z,11.20
2023-05-19T07:24:37.646Z,12.50
2023-05-19T07:25:37.287Z,10.60
2023-05-19T07:26:37.290Z,7.90
2023-05-19T07:27:37.582Z,10.00
2023-05-19T07:28:38.715Z,10.80
2023-05-19T07:29:37.506Z,8.00
2023-05-19T07:30:37.263Z,10.00
2023-05-19T07:31:37.738Z,10.90
2023-05-19T07:32:37.446Z,8.40
2023-05-19T07:33:37.250Z,9.70
2023-05-19T07:34:37.750Z,10.30
2023-05-19T07:35:37.365Z,8.10
2023-05-19T07:36:38.234Z,8.50
2023-05-19T07:37:37.661Z,6.20
2023-05-19T07:38:37.252Z,7.80
2023-05-19T07:39:37.260Z,8.60
2023-05-19T07:40:37.577Z,8.90
2023-05-19T07:41:37.186Z,10.50
2023-05-19T07:42:37.214Z,7.60
2023-05-19T07:43:37.173Z,7.70
2023-05-19T07:44:37.346Z,11.30
2023-05-19T07:45:37.440Z,9.20
2023-05-19T07:46:37.270Z,7.30
2023-05-19T07:47:37.233Z,7.30
2023-05-19T07:48:37.234Z,8.50
2023-05-19T07:49:37.124Z,12.00
2023-05-19T07:50:37.311Z,10.20
2023-05-19T07:51:37.098Z,9.40
2023-05-19T07:52:37.262Z,8.00
2023-05-19T07:53:37.393Z,8.80
2023-05-19T07:54:37.184Z,10.30
2023-05-19T07:55:37.177Z,8.90
2023-05-19T07:56:37.521Z,9.90
2023-05-19T07:57:37.098Z,10.80
2023-05-19T07:58:37.107Z,12.10
2023-05-19T07:59:37.261Z,9.60
2023-05-19T08:00:37.066Z,8.30
2023-05-19T08:01:37.072Z,8.50
2023-05-19T08:02:37.090Z,10.40
2023-05-19T08:03:37.815Z,8.60
2023-05-19T08:04:37.302Z,8.90
2023-05-19T08:05:37.287Z,9.90
2023-05-19T08:06:37.578Z,8.70
2023-05-19T08:07:37.176Z,7.80
2023-05-19T08:08:37.186Z,10.80
2023-05-19T08:09:36.979Z,8.20
2023-05-19T08:10:37.042Z,10.00
2023-05-19T08:11:37.007Z,8.80
2023-05-19T08:12:37.109Z,7.90
2023-05-19T08:13:37.030Z,8.10
2023-05-19T08:14:36.954Z,9.90
2023-05-19T08:15:37.406Z,7.50
2023-05-19T08:16:36.954Z,8.90
2023-05-19T08:17:36.982Z,7.50
2023-05-19T08:18:37.268Z,7.30
2023-05-19T08:19:37.580Z,9.30
2023-05-19T08:20:37.181Z,8.90
2023-05-19T08:21:37.199Z,9.70
2023-05-19T08:22:37.267Z,6.70
2023-05-19T08:23:37.102Z,8.30
2023-05-19T08:24:36.902Z,8.10
2023-05-19T08:25:37.374Z,9.40
2023-05-19T08:26:37.920Z,10.30
2023-05-19T08:27:37.020Z,8.00
2023-05-19T08:28:37.307Z,7.60
2023-05-19T08:29:36.942Z,8.60
2023-05-19T08:30:36.949Z,8.20
2023-05-19T08:31:36.850Z,7.60
2023-05-19T08:32:36.889Z,7.00
2023-05-19T08:33:36.862Z,7.30
2023-05-19T08:34:37.101Z,6.50
2023-05-19T08:35:36.783Z,6.80
2023-05-19T08:36:36.790Z,8.10
2023-05-19T08:37:36.773Z,9.60
2023-05-19T08:38:36.797Z,4.50
2023-05-19T08:39:36.869Z,7.70
2023-05-19T08:40:36.763Z,9.60
2023-05-19T08:41:36.742Z,6.70
2023-05-19T08:42:36.941Z,7.60
2023-05-19T08:43:36.759Z,9.00
2023-05-19T08:44:37.181Z,8.30
2023-05-19T08:45:36.724Z,8.40
2023-05-19T08:46:36.759Z,8.00
2023-05-19T08:47:37.200Z,8.50
2023-05-19T08:48:37.420Z,7.20
2023-05-19T08:49:36.700Z,8.90
2023-05-19T08:50:36.914Z,8.80
2023-05-19T08:51:36.678Z,7.70
2023-05-19T08:52:36.710Z,8.90
2023-05-19T08:53:37.032Z,5.50
2023-05-19T08:54:38.620Z,6.50
2023-05-19T08:55:36.654Z,8.60
2023-05-19T08:56:36.656Z,6.50
2023-05-19T08:57:36.927Z,6.90
2023-05-19T08:58:36.628Z,9.20
2023-05-19T08:59:36.631Z,8.50
2023-05-19T09:00:36.891Z,8.10
2023-05-19T09:02:36.670Z,8.20
2023-05-19T09:03:36.711Z,2.90
2023-05-19T09:04:36.793Z,10.80
2023-05-19T09:05:36.819Z,7.10
2023-05-19T09:06:36.582Z,6.90
2023-05-19T09:07:36.567Z,7.50
2023-05-19T09:08:36.574Z,5.70
2023-05-19T09:09:36.575Z,6.30
2023-05-19T09:10:36.660Z,4.90
2023-05-19T09:11:36.737Z,5.90
2023-05-19T09:12:36.530Z,6.60
2023-05-19T09:13:36.544Z,8.10
2023-05-19T09:14:36.631Z,6.80
2023-05-19T09:15:36.992Z,5.40
2023-05-19T09:16:36.715Z,6.80
2023-05-19T09:17:36.717Z,5.00
2023-05-19T09:18:36.508Z,8.80
2023-05-19T09:19:36.702Z,7.20
2023-05-19T09:20:36.621Z,8.70
2023-05-19T09:21:36.459Z,10.10
2023-05-19T09:22:36.731Z,6.40
2023-05-19T09:23:36.493Z,8.50
2023-05-19T09:24:36.554Z,6.80
2023-05-19T09:25:36.691Z,6.90
2023-05-19T09:26:36.461Z,6.70
2023-05-19T09:27:36.440Z,7.00
2023-05-19T09:28:36.882Z,7.90
2023-05-19T09:29:36.493Z,6.00
2023-05-19T09:30:36.408Z,10.10
2023-05-19T09:31:36.542Z,6.00
2023-05-19T09:32:36.790Z,6.90
2023-05-19T09:33:36.639Z,6.40
2023-05-19T09:34:36.410Z,5.10
2023-05-19T09:35:36.399Z,7.30
2023-05-19T09:36:36.458Z,6.10
2023-05-19T09:37:36.384Z,5.70
2023-05-19T09:38:36.362Z,6.50
2023-05-19T09:39:36.461Z,4.80
2023-05-19T09:40:36.350Z,5.10
2023-05-19T09:41:36.776Z,8.00
2023-05-19T09:42:36.378Z,5.30
2023-05-19T09:43:36.502Z,7.70
2023-05-19T09:44:36.333Z,5.40
2023-05-19T09:45:36.297Z,6.60
2023-05-19T09:46:36.392Z,7.70
2023-05-19T09:47:38.338Z,9.50
2023-05-19T09:48:36.955Z,6.20
2023-05-19T09:49:36.293Z,6.70
2023-05-19T09:50:36.283Z,6.70
2023-05-19T09:51:36.265Z,5.60
2023-05-19T09:52:36.265Z,5.80
2023-05-19T09:53:36.312Z,5.70
2023-05-19T09:54:36.240Z,10.10
2023-05-19T09:55:36.238Z,5.60
2023-05-19T09:56:36.215Z,7.70
2023-05-19T09:57:36.235Z,5.90
2023-05-19T09:58:36.236Z,5.10
2023-05-19T09:59:36.215Z,4.20
2023-05-19T10:00:36.623Z,4.90
2023-05-19T10:01:36.243Z,5.60
2023-05-19T10:02:38.221Z,8.30
2023-05-19T10:03:36.392Z,7.10
2023-05-19T10:04:36.188Z,6.70
2023-05-19T10:05:36.329Z,7.00
2023-05-19T10:06:36.162Z,5.70
2023-05-19T10:07:38.125Z,5.30
2023-05-19T10:08:36.263Z,9.30
2023-05-19T10:09:36.156Z,4.50
2023-05-19T10:10:36.134Z,4.80
2023-05-19T10:11:36.145Z,8.50
2023-05-19T10:12:36.133Z,6.60
2023-05-19T10:13:36.103Z,5.20
2023-05-19T10:14:36.126Z,8.00
2023-05-19T10:15:40.873Z,3.90
2023-05-19T10:16:36.171Z,4.40
2023-05-19T10:17:36.100Z,6.50
2023-05-19T10:18:37.513Z,5.40
2023-05-19T10:19:36.149Z,4.60
2023-05-19T10:20:36.061Z,6.00
2023-05-19T10:21:36.165Z,5.00
2023-05-19T10:22:36.037Z,5.70
2023-05-19T10:23:36.045Z,4.20
2023-05-19T10:24:36.070Z,6.20
2023-05-19T10:25:36.037Z,4.50
2023-05-19T10:26:36.103Z,4.70
2023-05-19T10:27:36.046Z,6.00
2023-05-19T10:28:36.109Z,5.20
2023-05-19T10:29:36.123Z,4.20
2023-05-19T10:30:36.127Z,4.20
2023-05-19T10:31:36.069Z,3.80
2023-05-19T10:32:36.021Z,4.70
2023-05-19T10:33:35.975Z,3.60
2023-05-19T10:34:35.952Z,5.00
2023-05-19T10:35:36.385Z,5.40
2023-05-19T10:36:35.962Z,5.40
2023-05-19T10:37:35.942Z,5.30
2023-05-19T10:38:35.949Z,4.30
2023-05-19T10:39:36.097Z,4.60
2023-05-19T10:40:35.962Z,4.60
2023-05-19T10:41:35.930Z,5.90
2023-05-19T10:42:35.898Z,5.20
2023-05-19T10:43:35.910Z,6.70
2023-05-19T10:44:35.919Z,5.40
2023-05-19T10:45:36.105Z,4.10
2023-05-19T10:46:35.905Z,5.60
2023-05-19T10:47:35.919Z,6.10
2023-05-19T10:48:37.316Z,3.60
2023-05-19T10:49:35.886Z,4.80
2023-05-19T10:50:35.856Z,5.10
2023-05-19T10:51:37.806Z,4.30
2023-05-19T10:52:35.826Z,4.40
2023-05-19T10:53:35.868Z,4.10
2023-05-19T10:54:35.836Z,3.00
2023-05-19T10:55:35.827Z,3.60
2023-05-19T10:56:35.819Z,5.20
2023-05-19T10:57:35.899Z,4.80
2023-05-19T10:58:36.113Z,5.50
2023-05-19T10:59:35.815Z,4.40
2023-05-19T11:00:35.781Z,4.40
2023-05-19T11:01:35.840Z,5.00
2023-05-19T11:02:35.795Z,5.90
2023-05-19T11:03:35.801Z,3.90
2023-05-19T11:04:35.813Z,6.10
2023-05-19T11:05:35.924Z,4.80
2023-05-19T11:06:35.747Z,4.40
2023-05-19T11:07:35.755Z,4.40
2023-05-19T11:08:35.828Z,4.20
2023-05-19T11:09:40.261Z,4.00
2023-05-19T11:10:35.998Z,4.90
2023-05-19T11:11:35.714Z,4.60
2023-05-19T11:12:35.712Z,6.80
2023-05-19T11:13:36.748Z,4.90
2023-05-19T11:14:35.687Z,4.60
2023-05-19T11:15:35.737Z,3.80
2023-05-19T11:16:35.752Z,4.00
2023-05-19T11:17:35.749Z,4.80
2023-05-19T11:18:35.801Z,4.50
2023-05-19T11:19:35.818Z,4.10
2023-05-19T11:20:35.728Z,3.40
2023-05-19T11:21:35.711Z,3.90
2023-05-19T11:22:35.634Z,5.20
2023-05-19T11:23:35.980Z,5.80
2023-05-19T11:24:35.742Z,5.20
2023-05-19T11:25:35.734Z,4.40
2023-05-19T11:26:36.077Z,4.00
2023-05-19T11:27:35.683Z,3.10
2023-05-19T11:28:35.596Z,4.60
2023-05-19T11:29:35.635Z,6.60
2023-05-19T11:30:35.598Z,3.20
2023-05-19T11:31:35.652Z,3.60
2023-05-19T11:32:35.848Z,5.00
2023-05-19T11:33:35.853Z,7.10
2023-05-19T11:34:35.818Z,5.30
2023-05-19T11:35:36.601Z,4.70
2023-05-19T11:36:35.720Z,6.80
2023-05-19T11:37:35.760Z,6.60
2023-05-19T11:38:35.556Z,7.00
2023-05-19T11:39:36.061Z,4.20
2023-05-19T11:40:35.673Z,5.20
2023-05-19T11:41:35.528Z,4.30
2023-05-19T11:42:35.774Z,5.50
2023-05-19T11:43:35.579Z,3.80
2023-05-19T11:44:35.576Z,5.50
2023-05-19T11:45:35.997Z,5.40
2023-05-19T11:46:35.577Z,4.40
2023-05-19T11:47:46.482Z,3.20
2023-05-19T11:48:35.850Z,3.20
2023-05-19T11:49:36.063Z,4.30
2023-05-19T11:50:35.462Z,5.80
2023-05-19T11:51:35.458Z,5.50
2023-05-19T11:52:35.782Z,3.70
2023-05-19T11:53:35.664Z,4.30
2023-05-19T11:54:35.664Z,5.00
2023-05-19T11:55:35.972Z,5.10
2023-05-19T11:56:35.527Z,4.30
2023-05-19T11:57:35.435Z,4.80
2023-05-19T11:58:35.901Z,4.30
2023-05-19T11:59:36.252Z,4.10
2023-05-19T12:00:35.419Z,6.50
2023-05-19T12:01:35.539Z,5.50
2023-05-19T12:02:35.509Z,4.60
2023-05-19T12:03:35.527Z,4.60
2023-05-19T12:04:35.596Z,4.20
2023-05-19T12:05:39.122Z,4.40
2023-05-19T12:06:35.413Z,3.60
2023-05-19T12:07:37.337Z,4.70
2023-05-19T12:08:36.006Z,4.60
2023-05-19T12:09:35.575Z,4.30
2023-05-19T12:10:35.369Z,6.10
2023-05-19T12:11:35.734Z,5.30
2023-05-19T12:12:35.381Z,6.20
2023-05-19T12:13:35.346Z,4.90
2023-05-19T12:14:35.829Z,3.90
2023-05-19T12:15:35.650Z,3.80
2023-05-19T12:16:35.477Z,6.80
2023-05-19T12:17:35.375Z,3.50
2023-05-19T12:18:35.345Z,6.30
2023-05-19T12:19:35.290Z,3.30
2023-05-19T12:20:36.220Z,5.40
2023-05-19T12:21:35.293Z,6.00
2023-05-19T12:22:35.320Z,7.30
2023-05-19T12:23:35.661Z,4.20
2023-05-19T12:24:35.889Z,4.40
2023-05-19T12:27:01.458Z,2.90
2023-05-19T12:28:01.978Z,4.20
2023-05-19T12:29:01.183Z,4.30
2023-05-19T12:30:01.262Z,4.40
2023-05-19T12:31:01.186Z,4.20
2023-05-19T12:32:01.249Z,3.40
2023-05-19T12:33:01.172Z,6.50
2023-05-19T12:34:01.333Z,4.50
2023-05-19T12:35:01.260Z,4.80
2023-05-19T12:36:01.259Z,4.80
2023-05-19T12:37:01.582Z,4.90
2023-05-19T12:38:01.178Z,4.20
2023-05-19T12:39:01.193Z,2.90
2023-05-19T12:41:27.097Z,3.30
2023-05-19T12:42:27.078Z,4.50
2023-05-19T12:43:27.465Z,8.60
2023-05-19T12:44:27.064Z,6.80
2023-05-19T12:45:27.057Z,4.30
2023-05-19T12:46:27.089Z,5.30
2023-05-19T12:47:27.064Z,4.90
2023-05-19T12:48:27.056Z,5.90
2023-05-19T12:49:27.043Z,4.40
2023-05-19T12:50:27.070Z,5.10
2023-05-19T12:51:27.109Z,2.10
2023-05-19T12:52:27.138Z,5.60
2023-05-19T12:53:27.398Z,2.90
2023-05-19T12:54:27.147Z,4.60
2023-05-19T12:55:27.098Z,4.60
2023-05-19T12:56:27.183Z,5.90
2023-05-19T12:57:27.035Z,6.50
2023-05-19T12:58:27.000Z,5.00
2023-05-19T12:59:37.832Z,4.40
2023-05-19T13:00:27.235Z,6.80
2023-05-19T13:01:27.233Z,3.50
2023-05-19T13:02:27.020Z,3.40
2023-05-19T13:03:27.427Z,6.10
2023-05-19T13:04:27.184Z,5.80
2023-05-19T13:05:27.182Z,4.50
2023-05-19T13:06:27.030Z,5.40
2023-05-19T13:07:27.103Z,5.50
2023-05-19T13:08:27.345Z,4.50
2023-05-19T13:09:27.420Z,4.70
2023-05-19T13:10:27.035Z,5.30